createdAt,value
2024-03-12T00:01:11.362Z,53.47
2024-03-12T00:03:45.494Z,53.29
2024-03-12T00:06:14.279Z,53.48
2024-03-12T00:08:45.105Z,53.22
2024-03-12T00:11:33.083Z,53.38
2024-03-12T00:14:02.530Z,53.57
2024-03-12T00:16:42.548Z,53.86
2024-03-12T00:19:28.560Z,53.57
2024-03-12T00:28:08.716Z,53.91
2024-03-12T00:30:54.139Z,54.23
2024-03-12T00:36:39.894Z,54.08
2024-03-12T00:46:03.522Z,54.21
2024-03-12T00:49:26.086Z,54.55
2024-03-12T01:10:27.388Z,54.62
2024-03-12T01:16:58.714Z,54.69
2024-03-12T02:05:15.828Z,55.49
2024-03-12T02:07:47.213Z,55.16
2024-03-12T02:10:16.713Z,55.30
2024-03-12T02:12:46.421Z,55.38
2024-03-12T02:15:19.359Z,55.27
2024-03-12T02:17:48.813Z,55.41
2024-03-12T02:20:19.393Z,55.37
2024-03-12T02:22:48.568Z,55.10
2024-03-12T02:25:19.125Z,55.70
2024-03-12T02:27:49.242Z,55.22
2024-03-12T02:30:21.160Z,55.69
2024-03-12T02:32:50.241Z,55.65
2024-03-12T02:35:21.189Z,55.56
2024-03-12T02:37:52.870Z,55.48
2024-03-12T02:40:25.421Z,55.60
2024-03-12T02:42:54.569Z,55.63
2024-03-12T02:45:25.263Z,55.70
2024-03-12T02:47:58.051Z,55.71
2024-03-12T02:50:35.102Z,55.79
2024-03-12T02:53:04.177Z,55.62
2024-03-12T02:55:35.142Z,55.81
2024-03-12T02:58:06.046Z,55.81
2024-03-12T03:00:39.333Z,56.06
2024-03-12T03:03:10.758Z,56.10
2024-03-12T03:05:41.565Z,56.19
2024-03-12T03:08:12.664Z,56.26
2024-03-12T03:10:43.255Z,56.69
2024-03-12T03:13:12.811Z,56.52
2024-03-12T03:15:41.653Z,56.80
2024-03-12T03:18:12.828Z,56.61
2024-03-12T03:20:43.194Z,56.75
2024-03-12T03:23:12.617Z,56.82
2024-03-12T03:25:44.463Z,56.86
2024-03-12T03:28:13.501Z,56.97
2024-03-12T03:30:43.579Z,56.88
2024-03-12T03:33:13.126Z,57.13
2024-03-12T03:35:43.513Z,57.20
2024-03-12T03:41:09.413Z,57.66
2024-03-12T03:43:53.409Z,57.69
2024-03-12T03:49:09.816Z,57.75
2024-03-12T03:51:54.232Z,57.77
2024-03-12T03:54:36.460Z,58.30
2024-03-12T03:57:12.704Z,58.93
2024-03-12T03:59:43.380Z,59.38
2024-03-12T04:02:25.489Z,59.95
2024-03-12T04:04:57.409Z,60.24
2024-03-12T04:07:27.539Z,60.29
2024-03-12T04:10:11.199Z,60.55
2024-03-12T04:12:46.176Z,60.88
2024-03-12T04:15:30.945Z,60.87
2024-03-12T04:20:45.416Z,61.40
2024-03-12T04:23:23.725Z,61.58
2024-03-12T04:25:55.598Z,61.33
2024-03-12T04:28:26.311Z,61.79
2024-03-12T04:31:11.216Z,61.87
2024-03-12T04:33:41.816Z,61.93
2024-03-12T04:36:20.689Z,61.84
2024-03-12T04:38:59.163Z,62.10
2024-03-12T04:41:27.689Z,62.00
2024-03-12T04:44:02.312Z,62.28
2024-03-12T04:46:37.530Z,62.27
2024-03-12T04:49:10.690Z,62.28
2024-03-12T04:51:39.517Z,62.25
2024-03-12T04:54:18.072Z,62.34
2024-03-12T04:57:03.999Z,62.73
2024-03-12T04:59:39.020Z,62.83
2024-03-12T05:02:21.637Z,62.87
2024-03-12T05:04:52.250Z,62.75
2024-03-12T05:07:21.975Z,62.43
2024-03-12T05:09:56.397Z,62.86
2024-03-12T05:12:26.227Z,62.70
2024-03-12T05:14:59.388Z,62.87
2024-03-12T05:17:30.463Z,63.10
2024-03-12T05:20:03.458Z,62.66
2024-03-12T05:22:36.060Z,62.90
2024-03-12T05:25:11.403Z,62.96
2024-03-12T05:27:48.234Z,62.98
2024-03-12T05:30:22.272Z,63.03
2024-03-12T05:32:55.364Z,62.90
2024-03-12T05:35:33.032Z,63.28
2024-03-12T05:38:09.384Z,62.99
2024-03-12T05:40:58.126Z,62.99
2024-03-12T05:43:43.985Z,63.09
2024-03-12T05:46:43.513Z,63.35
2024-03-12T05:49:16.283Z,63.46
2024-03-12T05:51:48.173Z,63.63
2024-03-12T05:54:44.910Z,63.06
2024-03-12T05:57:16.498Z,63.23
2024-03-12T05:59:44.974Z,63.31
2024-03-12T06:02:21.123Z,63.14
2024-03-12T06:04:49.622Z,63.17
2024-03-12T06:07:26.201Z,63.24
2024-03-12T06:09:56.211Z,63.41
2024-03-12T06:12:40.793Z,63.32
2024-03-12T06:15:20.810Z,63.35
2024-03-12T06:18:08.845Z,63.68
2024-03-12T06:20:43.319Z,63.23
2024-03-12T06:23:12.579Z,63.65
2024-03-12T06:25:48.752Z,63.25
2024-03-12T06:28:17.974Z,63.78
2024-03-12T06:30:47.309Z,63.80
2024-03-12T06:33:19.509Z,63.61
2024-03-12T06:35:49.418Z,63.64
2024-03-12T06:38:28.056Z,63.71
2024-03-12T06:41:08.799Z,63.74
2024-03-12T06:43:42.496Z,63.70
2024-03-12T06:46:17.810Z,63.46
2024-03-12T06:48:48.839Z,63.89
2024-03-12T06:51:17.739Z,63.83
2024-03-12T06:53:46.978Z,63.53
2024-03-12T06:56:18.647Z,63.84
2024-03-12T06:58:50.500Z,63.79
2024-03-12T07:01:21.003Z,63.70
2024-03-12T07:03:54.427Z,63.87
2024-03-12T07:06:37.063Z,63.83
2024-03-12T07:09:13.557Z,64.11
2024-03-12T07:11:44.205Z,64.01
2024-03-12T07:14:27.630Z,64.01
2024-03-12T07:16:58.869Z,63.99
2024-03-12T07:19:34.265Z,64.02
2024-03-12T07:22:08.570Z,64.30
2024-03-12T07:24:42.016Z,63.99
2024-03-12T07:27:17.982Z,63.91
2024-03-12T07:29:53.645Z,64.12
2024-03-12T07:35:37.364Z,64.09
2024-03-12T07:38:10.667Z,64.48
2024-03-12T07:40:44.132Z,64.14
2024-03-12T07:43:23.691Z,64.03
2024-03-12T07:45:59.830Z,64.34
2024-03-12T07:48:32.013Z,64.25
2024-03-12T07:51:06.821Z,64.27
2024-03-12T07:53:46.483Z,64.13
2024-03-12T07:56:15.823Z,64.08
2024-03-12T07:58:50.533Z,64.31
2024-03-12T08:01:22.696Z,64.21
2024-03-12T08:03:53.399Z,64.41
2024-03-12T08:06:25.317Z,64.22
2024-03-12T08:08:55.027Z,64.35
2024-03-12T08:11:23.601Z,64.37
2024-03-12T08:13:51.864Z,64.55
2024-03-12T08:16:23.728Z,64.27
2024-03-12T08:18:55.639Z,64.45
2024-03-12T08:21:34.701Z,64.32
2024-03-12T08:24:31.284Z,64.52
2024-03-12T08:27:11.615Z,64.56
2024-03-12T08:29:40.579Z,64.64
2024-03-12T08:32:10.222Z,64.48
2024-03-12T08:34:52.860Z,64.69
2024-03-12T08:37:24.131Z,64.41
2024-03-12T08:39:54.801Z,64.39
2024-03-12T08:42:23.422Z,64.44
2024-03-12T08:44:58.904Z,64.29
2024-03-12T08:47:28.930Z,64.37
2024-03-12T08:49:57.820Z,64.39
2024-03-12T08:52:32.798Z,64.53
2024-03-12T08:55:03.818Z,64.50
2024-03-12T08:57:36.209Z,64.55
2024-03-12T09:00:21.982Z,64.13
2024-03-12T09:03:12.108Z,64.52
2024-03-12T09:05:44.300Z,64.25
2024-03-12T09:08:16.132Z,64.17
2024-03-12T09:10:45.434Z,64.06
2024-03-12T09:16:38.914Z,64.31
2024-03-12T09:19:08.029Z,64.26
2024-03-12T09:21:54.788Z,64.34
2024-03-12T09:24:26.936Z,64.16
2024-03-12T09:26:57.582Z,64.19
2024-03-12T09:29:42.403Z,64.38
2024-03-12T09:32:15.352Z,64.32
2024-03-12T09:35:00.623Z,64.22
2024-03-12T09:37:50.174Z,64.54
2024-03-12T09:40:24.378Z,64.39
2024-03-12T09:43:01.057Z,64.33
2024-03-12T09:45:43.110Z,64.26
2024-03-12T09:48:22.882Z,64.34
2024-03-12T09:54:08.930Z,64.31
2024-03-12T09:56:50.742Z,64.45
2024-03-12T09:59:27.287Z,64.12
2024-03-12T10:02:05.692Z,64.15
2024-03-12T10:04:42.253Z,64.09
2024-03-12T10:07:16.657Z,64.03
2024-03-12T10:10:18.328Z,64.16
2024-03-12T10:13:35.920Z,63.67
2024-03-12T10:16:44.236Z,63.41
2024-03-12T10:19:20.792Z,63.55
2024-03-12T10:24:53.768Z,63.92
2024-03-12T10:31:03.409Z,63.25
2024-03-12T10:33:43.039Z,63.62
2024-03-12T10:40:23.892Z,63.37
2024-03-12T10:43:17.960Z,62.92
2024-03-12T10:46:37.694Z,63.50
2024-03-12T10:52:38.439Z,63.24
2024-03-12T10:55:20.154Z,63.16
2024-03-12T10:58:43.802Z,63.19
2024-03-12T11:04:18.697Z,62.74
2024-03-12T11:07:10.696Z,62.95
2024-03-12T11:09:59.236Z,63.12
2024-03-12T11:16:11.707Z,62.49
2024-03-12T11:23:15.478Z,62.93
2024-03-12T11:39:02.804Z,62.44
2024-03-12T11:42:24.805Z,62.00
2024-03-12T11:51:08.232Z,62.27
2024-03-12T11:56:46.438Z,61.90
2024-03-12T11:59:29.298Z,61.48
2024-03-12T12:02:04.612Z,61.75
2024-03-12T12:04:43.951Z,61.65
2024-03-12T12:07:21.144Z,61.83
2024-03-12T12:13:24.762Z,61.50
2024-03-12T12:21:59.324Z,61.02
2024-03-12T12:30:43.757Z,59.97
2024-03-12T13:48:02.790Z,59.05
2024-03-12T14:15:16.771Z,59.15
2024-03-12T16:00:26.540Z,60.27
2024-03-12T16:18:53.991Z,61.03
2024-03-12T19:02:48.265Z,62.47
2024-03-12T20:33:05.428Z,61.79
2024-03-12T21:38:42.750Z,60.40
2024-03-12T21:48:25.493Z,60.51
2024-03-12T21:55:17.402Z,60.34
2024-03-12T21:57:47.836Z,60.29
2024-03-12T22:14:53.161Z,60.44
2024-03-12T22:17:41.192Z,60.10
2024-03-12T22:45:54.916Z,60.08
2024-03-12T23:16:46.922Z,59.26
2024-03-12T23:22:53.237Z,59.23
2024-03-12T23:39:17.587Z,59.33
2024-03-12T23:44:54.576Z,59.22
2024-03-12T23:47:49.269Z,59.55
2024-03-12T23:50:54.448Z,59.33
